sensor_id;sensor_type;location;lat;lon;timestamp;temperature;humidity
40151;DHT22;25866;52.420;10.640;2023-05-19T00:01:08;9.90;99.90
40151;DHT22;25866;52.420;10.640;2023-05-19T00:03:35;9.80;99.90
40151;DHT22;25866;52.420;10.640;2023-05-19T00:06:06;9.80;99.90
40151;DHT22;25866;52.420;10.640;2023-05-19T00:08:37;9.80;99.90
40151;DHT22;25866;52.420;10.640;2023-05-19T00:11:03;9.70;99.90
40151;DHT22;25866;52.420;10.640;2023-05-19T00:13:29;9.80;99.90
40151;DHT22;25866;52.420;10.640;2023-05-19T00:15:55;9.80;99.90
40151;DHT22;25866;52.420;10.640;2023-05-19T00:18:21;9.70;99.90
40151;DHT22;25866;52.420;10.640;2023-05-19T00:20:48;9.80;99.90
40151;DHT22;25866;52.420;10.640;2023-05-19T00:23:14;9.80;99.90
40151;DHT22;25866;52.420;10.640;2023-05-19T00:25:39;9.80;99.90
40151;DHT22;25866;52.420;10.640;2023-05-19T00:28:05;9.70;99.90
40151;DHT22;25866;52.420;10.640;2023-05-19T00:30:31;9.80;99.90
40151;DHT22;25866;52.420;10.640;2023-05-19T00:32:57;9.80;99.90
40151;DHT22;25866;52.420;10.640;2023-05-19T00:35:23;9.80;99.90
40151;DHT22;25866;52.420;10.640;2023-05-19T00:37:49;9.70;99.90
40151;DHT22;25866;52.420;10.640;2023-05-19T00:40:15;9.70;99.90
40151;DHT22;25866;52.420;10.640;2023-05-19T00:42:41;9.70;99.90
40151;DHT22;25866;52.420;10.640;2023-05-19T00:45:07;9.70;99.90
40151;DHT22;25866;52.420;10.640;2023-05-19T00:47:33;9.70;99.90
40151;DHT22;25866;52.420;10.640;2023-05-19T00:49:59;9.70;99.90
40151;DHT22;25866;52.420;10.640;2023-05-19T00:52:26;9.70;99.90
40151;DHT22;25866;52.420;10.640;2023-05-19T00:54:52;9.70;99.90
40151;DHT22;25866;52.420;10.640;2023-05-19T00:57:20;9.70;99.90
40151;DHT22;25866;52.420;10.640;2023-05-19T00:59:49;9.60;99.90
40151;DHT22;25866;52.420;10.640;2023-05-19T01:02:15;9.60;99.90
40151;DHT22;25866;52.420;10.640;2023-05-19T01:04:40;9.60;99.90
40151;DHT22;25866;52.420;10.640;2023-05-19T01:07:08;9.60;99.90
40151;DHT22;25866;52.420;10.640;2023-05-19T01:09:35;9.60;99.90
40151;DHT22;25866;52.420;10.640;2023-05-19T01:12:01;9.70;99.90
40151;DHT22;25866;52.420;10.640;2023-05-19T01:14:28;9.60;99.90
40151;DHT22;25866;52.420;10.640;2023-05-19T01:17:05;9.60;99.90
40151;DHT22;25866;52.420;10.640;2023-05-19T01:19:52;9.60;99.90
40151;DHT22;25866;52.420;10.640;2023-05-19T01:22:31;9.60;99.90
40151;DHT22;25866;52.420;10.640;2023-05-19T01:30:36;9.50;99.90
40151;DHT22;25866;52.420;10.640;2023-05-19T01:33:07;9.40;99.90
40151;DHT22;25866;52.420;10.640;2023-05-19T01:35:35;9.40;99.90
40151;DHT22;25866;52.420;10.640;2023-05-19T01:38:02;9.40;99.90
40151;DHT22;25866;52.420;10.640;2023-05-19T01:40:29;9.50;99.90
40151;DHT22;25866;52.420;10.640;2023-05-19T01:42:59;9.50;99.90
40151;DHT22;25866;52.420;10.640;2023-05-19T01:45:27;9.50;99.90
40151;DHT22;25866;52.420;10.640;2023-05-19T01:47:56;9.50;99.90
40151;DHT22;25866;52.420;10.640;2023-05-19T01:50:22;9.50;99.90
40151;DHT22;25866;52.420;10.640;2023-05-19T01:52:48;9.50;99.90
40151;DHT22;25866;52.420;10.640;2023-05-19T01:55:13;9.50;99.90
40151;DHT22;25866;52.420;10.640;2023-05-19T01:58:01;9.40;99.90
40151;DHT22;25866;52.420;10.640;2023-05-19T02:05:37;9.40;99.90
40151;DHT22;25866;52.420;10.640;2023-05-19T02:10:41;9.40;99.90
40151;DHT22;25866;52.420;10.640;2023-05-19T02:13:12;9.30;99.90
40151;DHT22;25866;52.420;10.640;2023-05-19T02:15:40;9.30;99.90
40151;DHT22;25866;52.420;10.640;2023-05-19T02:18:09;9.30;99.90
40151;DHT22;25866;52.420;10.640;2023-05-19T02:20:37;9.30;99.90
40151;DHT22;25866;52.420;10.640;2023-05-19T02:23:04;9.30;99.90
40151;DHT22;25866;52.420;10.640;2023-05-19T02:25:29;9.30;99.90
40151;DHT22;25866;52.420;10.640;2023-05-19T02:27:57;9.20;99.90
40151;DHT22;25866;52.420;10.640;2023-05-19T02:30:22;9.20;99.90
40151;DHT22;25866;52.420;10.640;2023-05-19T02:32:48;9.10;99.90
40151;DHT22;25866;52.420;10.640;2023-05-19T02:35:14;9.10;99.90
40151;DHT22;25866;52.420;10.640;2023-05-19T02:37:40;9.00;99.90
40151;DHT22;25866;52.420;10.640;2023-05-19T02:40:06;9.00;99.90
40151;DHT22;25866;52.420;10.640;2023-05-19T02:42:32;9.00;99.90
40151;DHT22;25866;52.420;10.640;2023-05-19T02:44:59;9.00;99.90
40151;DHT22;25866;52.420;10.640;2023-05-19T02:47:25;9.00;99.90
40151;DHT22;25866;52.420;10.640;2023-05-19T02:49:50;9.00;99.90
40151;DHT22;25866;52.420;10.640;2023-05-19T02:52:16;9.00;99.90
40151;DHT22;25866;52.420;10.640;2023-05-19T02:54:42;8.90;99.90
40151;DHT22;25866;52.420;10.640;2023-05-19T02:57:07;8.90;99.90
40151;DHT22;25866;52.420;10.640;2023-05-19T02:59:33;8.90;99.90
40151;DHT22;25866;52.420;10.640;2023-05-19T03:02:01;8.90;99.90
40151;DHT22;25866;52.420;10.640;2023-05-19T03:04:27;8.90;99.90
40151;DHT22;25866;52.420;10.640;2023-05-19T03:06:54;8.90;99.90
40151;DHT22;25866;52.420;10.640;2023-05-19T03:09:20;8.90;99.90
40151;DHT22;25866;52.420;10.640;2023-05-19T03:11:46;8.90;99.90
40151;DHT22;25866;52.420;10.640;2023-05-19T03:14:11;8.80;99.90
40151;DHT22;25866;52.420;10.640;2023-05-19T03:16:39;8.80;99.90
40151;DHT22;25866;52.420;10.640;2023-05-19T03:19:08;8.80;99.90
40151;DHT22;25866;52.420;10.640;2023-05-19T03:21:34;8.80;99.90
40151;DHT22;25866;52.420;10.640;2023-05-19T03:24:03;8.80;99.90
40151;DHT22;25866;52.420;10.640;2023-05-19T03:26:28;8.70;99.90
40151;DHT22;25866;52.420;10.640;2023-05-19T03:28:54;8.60;99.90
40151;DHT22;25866;52.420;10.640;2023-05-19T03:31:20;8.60;99.90
40151;DHT22;25866;52.420;10.640;2023-05-19T03:33:46;8.60;99.90
40151;DHT22;25866;52.420;10.640;2023-05-19T03:36:12;8.50;99.90
40151;DHT22;25866;52.420;10.640;2023-05-19T03:38:38;8.50;99.90
40151;DHT22;25866;52.420;10.640;2023-05-19T03:41:03;8.50;99.90
40151;DHT22;25866;52.420;10.640;2023-05-19T03:43:29;8.40;99.90
40151;DHT22;25866;52.420;10.640;2023-05-19T03:45:55;8.40;99.90
40151;DHT22;25866;52.420;10.640;2023-05-19T03:48:21;8.40;99.90
40151;DHT22;25866;52.420;10.640;2023-05-19T03:50:46;8.30;99.90
40151;DHT22;25866;52.420;10.640;2023-05-19T03:53:13;8.30;99.90
40151;DHT22;25866;52.420;10.640;2023-05-19T03:55:38;8.30;99.90
40151;DHT22;25866;52.420;10.640;2023-05-19T03:58:04;8.30;99.90
40151;DHT22;25866;52.420;10.640;2023-05-19T04:00:30;8.30;99.90
40151;DHT22;25866;52.420;10.640;2023-05-19T04:02:56;8.30;99.90
40151;DHT22;25866;52.420;10.640;2023-05-19T04:05:22;8.30;99.90
40151;DHT22;25866;52.420;10.640;2023-05-19T04:07:48;8.30;99.90
40151;DHT22;25866;52.420;10.640;2023-05-19T04:10:13;8.30;99.90
40151;DHT22;25866;52.420;10.640;2023-05-19T04:12:39;8.30;99.90
40151;DHT22;25866;52.420;10.640;2023-05-19T04:15:05;8.40;99.90
40151;DHT22;25866;52.420;10.640;2023-05-19T04:17:31;8.30;99.90
40151;DHT22;25866;52.420;10.640;2023-05-19T04:19:57;8.40;99.90
40151;DHT22;25866;52.420;10.640;2023-05-19T04:22:25;8.40;99.90
40151;DHT22;25866;52.420;10.640;2023-05-19T04:24:50;8.40;99.90
40151;DHT22;25866;52.420;10.640;2023-05-19T04:27:17;8.50;99.90
40151;DHT22;25866;52.420;10.640;2023-05-19T04:29:43;8.50;99.90
40151;DHT22;25866;52.420;10.640;2023-05-19T04:32:10;8.50;99.90
40151;DHT22;25866;52.420;10.640;2023-05-19T04:34:36;8.50;99.90
40151;DHT22;25866;52.420;10.640;2023-05-19T04:37:07;8.50;99.90
40151;DHT22;25866;52.420;10.640;2023-05-19T04:39:34;8.60;99.90
40151;DHT22;25866;52.420;10.640;2023-05-19T04:42:05;8.70;99.90
40151;DHT22;25866;52.420;10.640;2023-05-19T04:44:31;8.80;99.90
40151;DHT22;25866;52.420;10.640;2023-05-19T04:46:58;9.10;99.90
40151;DHT22;25866;52.420;10.640;2023-05-19T04:49:24;9.30;99.90
40151;DHT22;25866;52.420;10.640;2023-05-19T04:51:51;9.70;99.90
40151;DHT22;25866;52.420;10.640;2023-05-19T04:54:17;10.00;99.90
40151;DHT22;25866;52.420;10.640;2023-05-19T04:56:43;10.30;99.90
40151;DHT22;25866;52.420;10.640;2023-05-19T04:59:09;10.50;99.90
40151;DHT22;25866;52.420;10.640;2023-05-19T05:01:35;10.60;99.90
40151;DHT22;25866;52.420;10.640;2023-05-19T05:04:05;10.70;99.90
40151;DHT22;25866;52.420;10.640;2023-05-19T05:06:31;10.90;99.90
40151;DHT22;25866;52.420;10.640;2023-05-19T05:08:57;10.90;99.90
40151;DHT22;25866;52.420;10.640;2023-05-19T05:11:25;10.90;99.90
40151;DHT22;25866;52.420;10.640;2023-05-19T05:13:51;11.00;99.90
40151;DHT22;25866;52.420;10.640;2023-05-19T05:16:17;11.20;99.90
40151;DHT22;25866;52.420;10.640;2023-05-19T05:18:43;11.30;99.90
40151;DHT22;25866;52.420;10.640;2023-05-19T05:21:11;11.30;99.90
40151;DHT22;25866;52.420;10.640;2023-05-19T05:23:40;11.40;99.90
40151;DHT22;25866;52.420;10.640;2023-05-19T05:26:09;11.30;99.90
40151;DHT22;25866;52.420;10.640;2023-05-19T05:28:40;11.20;99.90
40151;DHT22;25866;52.420;10.640;2023-05-19T05:31:06;11.10;99.90
40151;DHT22;25866;52.420;10.640;2023-05-19T05:33:32;11.20;99.90
40151;DHT22;25866;52.420;10.640;2023-05-19T05:35:57;11.10;99.90
40151;DHT22;25866;52.420;10.640;2023-05-19T05:38:23;11.00;99.90
40151;DHT22;25866;52.420;10.640;2023-05-19T05:40:49;11.10;99.90
40151;DHT22;25866;52.420;10.640;2023-05-19T05:43:15;11.10;99.90
40151;DHT22;25866;52.420;10.640;2023-05-19T05:45:41;11.20;99.90
40151;DHT22;25866;52.420;10.640;2023-05-19T05:48:07;11.30;99.90
40151;DHT22;25866;52.420;10.640;2023-05-19T05:50:33;11.40;99.90
40151;DHT22;25866;52.420;10.640;2023-05-19T05:53:00;11.50;99.90
40151;DHT22;25866;52.420;10.640;2023-05-19T05:55:26;11.60;99.90
40151;DHT22;25866;52.420;10.640;2023-05-19T05:57:52;11.60;99.90
40151;DHT22;25866;52.420;10.640;2023-05-19T06:00:18;11.70;99.90
40151;DHT22;25866;52.420;10.640;2023-05-19T06:02:47;11.70;99.90
40151;DHT22;25866;52.420;10.640;2023-05-19T06:05:13;11.90;99.90
40151;DHT22;25866;52.420;10.640;2023-05-19T06:07:39;11.90;99.90
40151;DHT22;25866;52.420;10.640;2023-05-19T06:10:06;11.90;99.90
40151;DHT22;25866;52.420;10.640;2023-05-19T06:12:32;11.90;99.90
40151;DHT22;25866;52.420;10.640;2023-05-19T06:14:58;11.90;99.90
40151;DHT22;25866;52.420;10.640;2023-05-19T06:17:24;12.20;99.90
40151;DHT22;25866;52.420;10.640;2023-05-19T06:19:50;12.40;99.90
40151;DHT22;25866;52.420;10.640;2023-05-19T06:22:16;12.60;99.90
40151;DHT22;25866;52.420;10.640;2023-05-19T06:24:46;12.70;99.90
40151;DHT22;25866;52.420;10.640;2023-05-19T06:27:12;12.80;99.90
40151;DHT22;25866;52.420;10.640;2023-05-19T06:29:38;12.80;99.90
40151;DHT22;25866;52.420;10.640;2023-05-19T06:32:04;13.20;99.90
40151;DHT22;25866;52.420;10.640;2023-05-19T06:34:32;13.20;99.90
40151;DHT22;25866;52.420;10.640;2023-05-19T06:36:58;13.40;99.90
40151;DHT22;25866;52.420;10.640;2023-05-19T06:39:27;13.70;99.90
40151;DHT22;25866;52.420;10.640;2023-05-19T06:41:52;13.90;99.90
40151;DHT22;25866;52.420;10.640;2023-05-19T06:44:19;14.00;99.90
40151;DHT22;25866;52.420;10.640;2023-05-19T06:46:45;14.20;99.90
40151;DHT22;25866;52.420;10.640;2023-05-19T06:49:10;14.50;99.90
40151;DHT22;25866;52.420;10.640;2023-05-19T06:51:36;14.50;99.90
40151;DHT22;25866;52.420;10.640;2023-05-19T06:54:02;14.60;99.90
40151;DHT22;25866;52.420;10.640;2023-05-19T06:56:28;14.80;99.90
40151;DHT22;25866;52.420;10.640;2023-05-19T06:58:53;15.00;99.90
40151;DHT22;25866;52.420;10.640;2023-05-19T07:01:19;14.90;99.20
40151;DHT22;25866;52.420;10.640;2023-05-19T07:03:47;15.10;99.50
40151;DHT22;25866;52.420;10.640;2023-05-19T07:06:13;15.10;99.70
40151;DHT22;25866;52.420;10.640;2023-05-19T07:08:39;15.10;99.20
40151;DHT22;25866;52.420;10.640;2023-05-19T07:11:04;15.10;99.60
40151;DHT22;25866;52.420;10.640;2023-05-19T07:13:31;15.20;99.60
40151;DHT22;25866;52.420;10.640;2023-05-19T07:15:57;15.20;98.30
40151;DHT22;25866;52.420;10.640;2023-05-19T07:18:23;15.20;98.80
40151;DHT22;25866;52.420;10.640;2023-05-19T07:20:51;15.30;99.40
40151;DHT22;25866;52.420;10.640;2023-05-19T07:23:18;15.40;99.10
40151;DHT22;25866;52.420;10.640;2023-05-19T07:25:44;15.50;98.40
40151;DHT22;25866;52.420;10.640;2023-05-19T07:28:10;15.50;98.30
40151;DHT22;25866;52.420;10.640;2023-05-19T07:30:36;15.50;97.90
40151;DHT22;25866;52.420;10.640;2023-05-19T07:33:02;15.40;98.30
40151;DHT22;25866;52.420;10.640;2023-05-19T07:35:28;15.50;98.70
40151;DHT22;25866;52.420;10.640;2023-05-19T07:37:53;15.70;98.60
40151;DHT22;25866;52.420;10.640;2023-05-19T07:40:19;15.60;98.30
40151;DHT22;25866;52.420;10.640;2023-05-19T07:42:45;15.90;99.10
40151;DHT22;25866;52.420;10.640;2023-05-19T07:45:11;15.80;98.20
40151;DHT22;25866;52.420;10.640;2023-05-19T07:47:36;15.90;97.30
40151;DHT22;25866;52.420;10.640;2023-05-19T07:50:03;15.70;97.00
40151;DHT22;25866;52.420;10.640;2023-05-19T07:52:28;15.60;97.60
40151;DHT22;25866;52.420;10.640;2023-05-19T07:54:54;15.90;99.00
40151;DHT22;25866;52.420;10.640;2023-05-19T07:57:20;16.00;97.90
40151;DHT22;25866;52.420;10.640;2023-05-19T07:59:46;16.20;97.90
40151;DHT22;25866;52.420;10.640;2023-05-19T08:02:12;16.10;98.10
40151;DHT22;25866;52.420;10.640;2023-05-19T08:04:37;16.00;97.70
40151;DHT22;25866;52.420;10.640;2023-05-19T08:07:03;16.10;97.80
40151;DHT22;25866;52.420;10.640;2023-05-19T08:09:29;16.20;97.00
40151;DHT22;25866;52.420;10.640;2023-05-19T08:11:55;16.10;96.60
40151;DHT22;25866;52.420;10.640;2023-05-19T08:14:21;16.20;97.50
40151;DHT22;25866;52.420;10.640;2023-05-19T08:16:47;16.40;96.20
40151;DHT22;25866;52.420;10.640;2023-05-19T08:19:13;16.40;96.00
40151;DHT22;25866;52.420;10.640;2023-05-19T08:21:39;16.60;96.70
40151;DHT22;25866;52.420;10.640;2023-05-19T08:24:08;16.70;96.50
40151;DHT22;25866;52.420;10.640;2023-05-19T08:26:33;16.80;95.50
40151;DHT22;25866;52.420;10.640;2023-05-19T08:29:00;16.90;95.70
40151;DHT22;25866;52.420;10.640;2023-05-19T08:31:26;17.10;95.70
40151;DHT22;25866;52.420;10.640;2023-05-19T08:33:52;17.10;95.50
40151;DHT22;25866;52.420;10.640;2023-05-19T08:36:19;17.20;94.40
40151;DHT22;25866;52.420;10.640;2023-05-19T08:38:46;17.30;94.10
40151;DHT22;25866;52.420;10.640;2023-05-19T08:41:12;17.20;94.50
40151;DHT22;25866;52.420;10.640;2023-05-19T08:43:37;17.20;93.80
40151;DHT22;25866;52.420;10.640;2023-05-19T08:46:05;17.10;94.00
40151;DHT22;25866;52.420;10.640;2023-05-19T08:48:34;17.30;94.20
40151;DHT22;25866;52.420;10.640;2023-05-19T08:51:22;17.30;94.20
40151;DHT22;25866;52.420;10.640;2023-05-19T08:53:56;17.50;94.30
40151;DHT22;25866;52.420;10.640;2023-05-19T08:56:25;17.70;94.20
40151;DHT22;25866;52.420;10.640;2023-05-19T08:58:53;17.80;95.10
40151;DHT22;25866;52.420;10.640;2023-05-19T09:01:21;17.90;94.30
40151;DHT22;25866;52.420;10.640;2023-05-19T09:03:48;18.00;92.30
40151;DHT22;25866;52.420;10.640;2023-05-19T09:06:15;18.10;92.40
40151;DHT22;25866;52.420;10.640;2023-05-19T09:08:42;18.10;92.90
40151;DHT22;25866;52.420;10.640;2023-05-19T09:11:08;18.00;93.30
40151;DHT22;25866;52.420;10.640;2023-05-19T09:13:34;17.70;93.90
40151;DHT22;25866;52.420;10.640;2023-05-19T09:16:02;17.80;93.50
40151;DHT22;25866;52.420;10.640;2023-05-19T09:18:28;18.00;92.60
40151;DHT22;25866;52.420;10.640;2023-05-19T09:20:59;18.20;91.90
40151;DHT22;25866;52.420;10.640;2023-05-19T09:23:30;18.20;90.70
40151;DHT22;25866;52.420;10.640;2023-05-19T09:25:59;18.40;92.00
40151;DHT22;25866;52.420;10.640;2023-05-19T09:28:30;18.40;92.00
40151;DHT22;25866;52.420;10.640;2023-05-19T09:31:15;18.40;90.60
40151;DHT22;25866;52.420;10.640;2023-05-19T09:33:42;18.60;90.90
40151;DHT22;25866;52.420;10.640;2023-05-19T09:36:08;18.80;91.70
40151;DHT22;25866;52.420;10.640;2023-05-19T09:38:36;18.90;88.30
40151;DHT22;25866;52.420;10.640;2023-05-19T09:41:03;18.90;87.70
40151;DHT22;25866;52.420;10.640;2023-05-19T09:43:30;18.70;88.20
40151;DHT22;25866;52.420;10.640;2023-05-19T09:46:07;18.50;90.20
40151;DHT22;25866;52.420;10.640;2023-05-19T09:48:33;18.60;89.70
40151;DHT22;25866;52.420;10.640;2023-05-19T09:51:00;18.50;90.20
40151;DHT22;25866;52.420;10.640;2023-05-19T09:53:28;18.50;87.60
40151;DHT22;25866;52.420;10.640;2023-05-19T09:55:55;18.60;87.20
40151;DHT22;25866;52.420;10.640;2023-05-19T09:58:25;18.20;86.70
40151;DHT22;25866;52.420;10.640;2023-05-19T10:00:52;18.10;86.90
40151;DHT22;25866;52.420;10.640;2023-05-19T10:03:23;18.40;88.80
40151;DHT22;25866;52.420;10.640;2023-05-19T10:05:50;18.70;88.20
40151;DHT22;25866;52.420;10.640;2023-05-19T10:08:17;18.60;87.20
40151;DHT22;25866;52.420;10.640;2023-05-19T10:10:46;18.60;89.20
40151;DHT22;25866;52.420;10.640;2023-05-19T10:13:12;18.50;86.10
40151;DHT22;25866;52.420;10.640;2023-05-19T10:15:42;18.30;88.40
40151;DHT22;25866;52.420;10.640;2023-05-19T10:18:08;18.50;89.20
40151;DHT22;25866;52.420;10.640;2023-05-19T10:20:35;18.60;86.00
40151;DHT22;25866;52.420;10.640;2023-05-19T10:23:01;18.30;84.40
40151;DHT22;25866;52.420;10.640;2023-05-19T10:25:31;18.00;85.90
40151;DHT22;25866;52.420;10.640;2023-05-19T10:28:04;17.80;87.20
40151;DHT22;25866;52.420;10.640;2023-05-19T10:30:38;17.90;88.30
40151;DHT22;25866;52.420;10.640;2023-05-19T10:33:07;18.00;88.30
40151;DHT22;25866;52.420;10.640;2023-05-19T10:38:41;19.00;85.10
40151;DHT22;25866;52.420;10.640;2023-05-19T10:41:31;19.40;83.80
40151;DHT22;25866;52.420;10.640;2023-05-19T10:44:22;19.40;82.40
40151;DHT22;25866;52.420;10.640;2023-05-19T10:46:52;19.00;83.00
40151;DHT22;25866;52.420;10.640;2023-05-19T10:49:22;18.80;85.50
40151;DHT22;25866;52.420;10.640;2023-05-19T10:51:48;19.00;83.40
40151;DHT22;25866;52.420;10.640;2023-05-19T10:54:14;19.10;84.40
40151;DHT22;25866;52.420;10.640;2023-05-19T10:56:45;19.00;84.20
40151;DHT22;25866;52.420;10.640;2023-05-19T10:59:34;18.80;82.10
40151;DHT22;25866;52.420;10.640;2023-05-19T11:02:03;19.10;85.70
40151;DHT22;25866;52.420;10.640;2023-05-19T11:04:48;19.20;83.80
40151;DHT22;25866;52.420;10.640;2023-05-19T11:07:19;18.80;82.80
40151;DHT22;25866;52.420;10.640;2023-05-19T11:09:50;18.60;83.70
40151;DHT22;25866;52.420;10.640;2023-05-19T11:12:23;18.80;83.80
40151;DHT22;25866;52.420;10.640;2023-05-19T11:14:52;18.90;83.60
40151;DHT22;25866;52.420;10.640;2023-05-19T11:17:19;19.00;82.10
40151;DHT22;25866;52.420;10.640;2023-05-19T11:19:55;19.00;81.50
40151;DHT22;25866;52.420;10.640;2023-05-19T11:22:23;18.90;80.70
40151;DHT22;25866;52.420;10.640;2023-05-19T11:24:50;18.70;80.40
40151;DHT22;25866;52.420;10.640;2023-05-19T11:27:31;18.60;80.50
40151;DHT22;25866;52.420;10.640;2023-05-19T11:29:59;18.50;79.80
40151;DHT22;25866;52.420;10.640;2023-05-19T11:32:28;18.80;83.60
40151;DHT22;25866;52.420;10.640;2023-05-19T11:34:55;19.50;84.10
40151;DHT22;25866;52.420;10.640;2023-05-19T11:37:23;19.90;79.00
40151;DHT22;25866;52.420;10.640;2023-05-19T11:39:49;19.90;77.30
40151;DHT22;25866;52.420;10.640;2023-05-19T11:42:15;19.90;79.40
40151;DHT22;25866;52.420;10.640;2023-05-19T11:44:42;19.90;79.10
40151;DHT22;25866;52.420;10.640;2023-05-19T11:47:11;19.90;78.30
40151;DHT22;25866;52.420;10.640;2023-05-19T11:49:37;19.70;79.00
40151;DHT22;25866;52.420;10.640;2023-05-19T11:52:04;19.80;79.30
40151;DHT22;25866;52.420;10.640;2023-05-19T11:54:32;19.50;79.20
40151;DHT22;25866;52.420;10.640;2023-05-19T11:57:02;19.40;81.90
40151;DHT22;25866;52.420;10.640;2023-05-19T11:59:31;19.30;81.00
40151;DHT22;25866;52.420;10.640;2023-05-19T12:02:00;19.40;79.50
40151;DHT22;25866;52.420;10.640;2023-05-19T12:04:28;19.60;80.40
40151;DHT22;25866;52.420;10.640;2023-05-19T12:06:54;19.60;79.70
40151;DHT22;25866;52.420;10.640;2023-05-19T12:09:22;19.70;78.70
40151;DHT22;25866;52.420;10.640;2023-05-19T12:11:49;19.80;79.80
40151;DHT22;25866;52.420;10.640;2023-05-19T12:14:16;20.20;78.50
40151;DHT22;25866;52.420;10.640;2023-05-19T12:16:42;20.50;76.40
40151;DHT22;25866;52.420;10.640;2023-05-19T12:19:08;20.60;77.80
40151;DHT22;25866;52.420;10.640;2023-05-19T12:21:34;20.30;77.90
40151;DHT22;25866;52.420;10.640;2023-05-19T12:24:00;20.00;77.10
40151;DHT22;25866;52.420;10.640;2023-05-19T12:26:26;19.60;78.00
40151;DHT22;25866;52.420;10.640;2023-05-19T12:28:52;19.50;77.90
40151;DHT22;25866;52.420;10.640;2023-05-19T12:31:19;19.30;78.80
40151;DHT22;25866;52.420;10.640;2023-05-19T12:33:48;19.40;78.20
40151;DHT22;25866;52.420;10.640;2023-05-19T12:36:17;19.40;77.40
40151;DHT22;25866;52.420;10.640;2023-05-19T12:38:43;19.60;78.60
40151;DHT22;25866;52.420;10.640;2023-05-19T12:41:10;19.50;79.30
40151;DHT22;25866;52.420;10.640;2023-05-19T12:43:39;19.40;79.00
40151;DHT22;25866;52.420;10.640;2023-05-19T12:46:12;19.20;79.20
40151;DHT22;25866;52.420;10.640;2023-05-19T12:48:45;19.40;81.20
40151;DHT22;25866;52.420;10.640;2023-05-19T12:51:20;19.80;78.70
40151;DHT22;25866;52.420;10.640;2023-05-19T12:53:46;20.30;78.00
40151;DHT22;25866;52.420;10.640;2023-05-19T12:56:14;20.10;76.80
40151;DHT22;25866;52.420;10.640;2023-05-19T12:58:41;19.80;76.20
40151;DHT22;25866;52.420;10.640;2023-05-19T13:01:14;19.50;77.60
40151;DHT22;25866;52.420;10.640;2023-05-19T13:03:41;19.20;78.10
40151;DHT22;25866;52.420;10.640;2023-05-19T13:06:07;19.00;78.40
40151;DHT22;25866;52.420;10.640;2023-05-19T13:08:34;18.90;78.40
40151;DHT22;25866;52.420;10.640;2023-05-19T13:11:00;18.90;78.90
40151;DHT22;25866;52.420;10.640;2023-05-19T13:13:26;19.20;81.20
40151;DHT22;25866;52.420;10.640;2023-05-19T13:15:51;19.50;80.10
40151;DHT22;25866;52.420;10.640;2023-05-19T13:18:19;19.70;79.70
40151;DHT22;25866;52.420;10.640;2023-05-19T13:20:46;19.70;78.30
40151;DHT22;25866;52.420;10.640;2023-05-19T13:23:13;19.70;79.80
40151;DHT22;25866;52.420;10.640;2023-05-19T13:25:39;19.40;79.80
40151;DHT22;25866;52.420;10.640;2023-05-19T13:28:06;19.30;79.60
40151;DHT22;25866;52.420;10.640;2023-05-19T13:30:37;19.10;78.30
40151;DHT22;25866;52.420;10.640;2023-05-19T13:33:04;19.00;78.20
40151;DHT22;25866;52.420;10.640;2023-05-19T13:35:30;18.80;79.30
40151;DHT22;25866;52.420;10.640;2023-05-19T13:38:03;18.80;79.00
40151;DHT22;25866;52.420;10.640;2023-05-19T13:40:29;18.90;80.00
40151;DHT22;25866;52.420;10.640;2023-05-19T13:42:57;19.40;83.10
40151;DHT22;25866;52.420;10.640;2023-05-19T13:45:23;19.80;82.30
40151;DHT22;25866;52.420;10.640;2023-05-19T13:47:49;20.00;78.80
40151;DHT22;25866;52.420;10.640;2023-05-19T13:50:15;20.00;77.10
40151;DHT22;25866;52.420;10.640;2023-05-19T13:52:41;19.90;76.40
40151;DHT22;25866;52.420;10.640;2023-05-19T13:55:07;19.70;77.50
40151;DHT22;25866;52.420;10.640;2023-05-19T13:57:33;19.50;78.10
40151;DHT22;25866;52.420;10.640;2023-05-19T13:59:59;19.40;79.90
40151;DHT22;25866;52.420;10.640;2023-05-19T14:02:25;19.40;78.80
40151;DHT22;25866;52.420;10.640;2023-05-19T14:04:51;19.20;77.90
40151;DHT22;25866;52.420;10.640;2023-05-19T14:07:16;19.20;80.10
40151;DHT22;25866;52.420;10.640;2023-05-19T14:09:42;19.20;79.30
40151;DHT22;25866;52.420;10.640;2023-05-19T14:12:08;19.00;79.10
40151;DHT22;25866;52.420;10.640;2023-05-19T14:14:36;18.90;79.30
40151;DHT22;25866;52.420;10.640;2023-05-19T14:17:02;18.80;81.10
40151;DHT22;25866;52.420;10.640;2023-05-19T14:19:28;18.80;80.60
40151;DHT22;25866;52.420;10.640;2023-05-19T14:21:55;18.70;79.50
40151;DHT22;25866;52.420;10.640;2023-05-19T14:24:21;18.70;79.10
40151;DHT22;25866;52.420;10.640;2023-05-19T14:26:47;18.60;79.80
40151;DHT22;25866;52.420;10.640;2023-05-19T14:29:14;18.70;80.30
40151;DHT22;25866;52.420;10.640;2023-05-19T14:31:39;18.70;79.70
40151;DHT22;25866;52.420;10.640;2023-05-19T14:34:05;18.70;79.50
40151;DHT22;25866;52.420;10.640;2023-05-19T14:36:31;18.70;80.30
40151;DHT22;25866;52.420;10.640;2023-05-19T14:39:00;18.60;80.30
40151;DHT22;25866;52.420;10.640;2023-05-19T14:41:25;18.60;80.20
40151;DHT22;25866;52.420;10.640;2023-05-19T14:43:52;18.70;81.50
40151;DHT22;25866;52.420;10.640;2023-05-19T14:46:17;18.70;80.90
40151;DHT22;25866;52.420;10.640;2023-05-19T14:48:43;18.80;80.70
40151;DHT22;25866;52.420;10.640;2023-05-19T14:51:09;18.70;80.70
40151;DHT22;25866;52.420;10.640;2023-05-19T14:53:34;18.80;79.60
40151;DHT22;25866;52.420;10.640;2023-05-19T14:56:00;18.80;80.10
40151;DHT22;25866;52.420;10.640;2023-05-19T14:58:26;18.90;80.40
40151;DHT22;25866;52.420;10.640;2023-05-19T15:00:52;18.90;80.60
40151;DHT22;25866;52.420;10.640;2023-05-19T15:03:17;18.90;81.10
40151;DHT22;25866;52.420;10.640;2023-05-19T15:05:44;18.90;81.20
40151;DHT22;25866;52.420;10.640;2023-05-19T15:08:10;18.90;81.40
40151;DHT22;25866;52.420;10.640;2023-05-19T15:10:35;18.90;80.60
40151;DHT22;25866;52.420;10.640;2023-05-19T15:13:01;18.90;81.50
40151;DHT22;25866;52.420;10.640;2023-05-19T15:15:28;18.90;79.70
40151;DHT22;25866;52.420;10.640;2023-05-19T15:17:55;18.80;78.30
40151;DHT22;25866;52.420;10.640;2023-05-19T15:20:21;18.90;79.30
40151;DHT22;25866;52.420;10.640;2023-05-19T15:22:47;18.80;78.40
40151;DHT22;25866;52.420;10.640;2023-05-19T15:25:13;18.80;78.50
40151;DHT22;25866;52.420;10.640;2023-05-19T15:27:38;18.80;77.80
40151;DHT22;25866;52.420;10.640;2023-05-19T15:30:05;18.80;79.10
40151;DHT22;25866;52.420;10.640;2023-05-19T15:32:31;18.80;78.60
40151;DHT22;25866;52.420;10.640;2023-05-19T15:34:56;19.00;79.60
40151;DHT22;25866;52.420;10.640;2023-05-19T15:37:22;19.10;80.60